Time;durP1;ratioP1;P1;durP2;ratioP2;P2;SDS_P1;SDS_P2;PMS_P1;PMS_P2;Temp;Humidity;BMP_temperature;BMP_pressure;BME280_temperature;BME280_humidity;BME280_pressure;Samples;Min_cycle;Max_cycle;Signal;HPM_P1;HPM_P2
2023/04/10 00:01:00;;;;;;;1999.90;999.90;;;;;;;3.10;100.00;95626.72;5064795;28;20166;-73
2023/04/10 00:03:26;;;;;;;1999.90;999.90;;;;;;;3.05;100.00;95634.28;5064292;28;20170;-73
2023/04/10 00:05:53;;;;;;;1999.90;999.90;;;;;;;3.01;100.00;95628.03;5064263;28;20173;-73
2023/04/10 00:08:22;;;;;;;1999.90;999.90;;;;;;;2.98;100.00;95618.72;5064666;28;20166;-73
2023/04/10 00:10:48;;;;;;;1999.90;999.90;;;;;;;2.98;100.00;95618.72;5064613;28;20383;-73
2023/04/10 00:13:14;;;;;;;1999.90;999.90;;;;;;;2.99;100.00;95609.50;5064142;28;20166;-73
2023/04/10 00:15:40;;;;;;;1999.90;999.90;;;;;;;2.97;100.00;95600.19;5064018;28;20198;-73
2023/04/10 00:18:05;;;;;;;1999.90;999.90;;;;;;;3.01;100.00;95596.44;5063951;28;20170;-72
2023/04/10 00:20:30;;;;;;;1999.90;999.90;;;;;;;3.03;100.00;95594.16;5063954;28;20236;-72
2023/04/10 00:22:56;;;;;;;1999.90;999.90;;;;;;;3.03;100.00;95609.59;5064028;28;20233;-72
2023/04/10 00:25:22;;;;;;;1999.90;999.90;;;;;;;3.00;100.00;95611.06;5063483;28;20170;-72
2023/04/10 00:27:47;;;;;;;1999.90;999.90;;;;;;;2.97;100.00;95595.59;5064367;28;20220;-72
2023/04/10 00:30:13;;;;;;;1999.90;999.90;;;;;;;2.94;100.00;95601.69;5064109;28;20225;-72
2023/04/10 00:32:38;;;;;;;1999.90;999.90;;;;;;;2.93;100.00;95600.13;5063824;28;20170;-72
2023/04/10 00:35:04;;;;;;;1999.90;999.90;;;;;;;2.85;100.00;95609.16;5064282;28;20189;-72
2023/04/10 00:37:29;;;;;;;1999.90;999.90;;;;;;;2.80;100.00;95609.41;5063757;28;20193;-72
2023/04/10 00:39:55;;;;;;;1999.90;999.90;;;;;;;2.76;100.00;95605.06;5064193;28;20197;-73
2023/04/10 00:42:20;;;;;;;1999.90;999.90;;;;;;;2.65;100.00;95604.81;5063712;28;20173;-72
2023/04/10 00:44:45;;;;;;;1999.90;999.90;;;;;;;2.60;100.00;95596.19;5064190;28;20184;-73
2023/04/10 00:47:12;;;;;;;1999.90;999.90;;;;;;;2.53;100.00;95591.41;5063554;28;20232;-71
2023/04/10 00:49:39;;;;;;;1999.90;999.90;;;;;;;2.49;100.00;95590.56;5064161;28;20170;-72
2023/04/10 00:52:04;;;;;;;1999.90;999.90;;;;;;;2.45;100.00;95584.25;5063647;28;20166;-75
2023/04/10 00:54:30;;;;;;;1999.90;999.90;;;;;;;2.37;100.00;95571.75;5063453;28;20223;-71
2023/04/10 00:56:57;;;;;;;1999.90;999.90;;;;;;;2.41;100.00;95555.69;5063340;28;20169;-72
2023/04/10 00:59:22;;;;;;;1999.90;999.90;;;;;;;2.35;100.00;95555.16;5063473;28;20165;-73
2023/04/10 01:01:48;;;;;;;1999.90;999.90;;;;;;;2.31;100.00;95546.22;5063558;28;20178;-72
2023/04/10 01:04:13;;;;;;;1999.90;999.90;;;;;;;2.28;100.00;95541.50;5063359;28;20204;-72
2023/04/10 01:07:20;;;;;;;1999.90;999.90;;;;;;;2.26;100.00;95538.38;5063565;28;20173;-73
2023/04/10 01:09:57;;;;;;;1999.90;999.90;;;;;;;2.25;100.00;95528.72;5026378;28;20184;-73
2023/04/10 01:12:35;;;;;;;1999.90;999.90;;;;;;;2.18;100.00;95512.41;5059616;28;20177;-72
2023/04/10 01:15:17;;;;;;;1999.90;999.90;;;;;;;2.11;100.00;95504.13;5063335;28;20260;-72
2023/04/10 01:17:58;;;;;;;1999.90;999.90;;;;;;;2.09;100.00;95492.94;5063985;28;20169;-71
2023/04/10 01:20:27;;;;;;;1999.90;999.90;;;;;;;2.09;100.00;95484.88;5063916;28;20208;-71
2023/04/10 01:23:38;;;;;;;1999.90;999.90;;;;;;;2.06;100.00;95499.00;5063357;28;20189;-71
2023/04/10 01:26:06;;;;;;;1999.90;999.90;;;;;;;2.02;100.00;95490.06;5026481;28;20171;-72
2023/04/10 01:28:56;;;;;;;1999.90;999.90;;;;;;;1.97;100.00;95482.22;5058003;28;20178;-72
2023/04/10 01:31:40;;;;;;;1999.90;999.90;;;;;;;1.88;100.00;95468.16;5063046;28;20296;-71
2023/04/10 01:34:13;;;;;;;1999.90;999.90;;;;;;;1.86;100.00;95443.50;5063734;28;20169;-75
2023/04/10 01:36:52;;;;;;;1999.90;999.90;;;;;;;1.87;100.00;95372.41;5065622;28;20177;-71
2023/04/10 01:39:20;;;;;;;1999.90;999.90;;;;;;;1.84;100.00;95354.25;5067451;28;20157;-71
2023/04/10 01:41:49;;;;;;;1999.90;999.90;;;;;;;1.88;100.00;95338.97;5067010;28;20176;-71
2023/04/10 01:44:17;;;;;;;1999.90;999.90;;;;;;;1.86;100.00;95322.38;5067416;28;20211;-72
2023/04/10 01:46:44;;;;;;;1999.90;999.90;;;;;;;1.85;100.00;95312.72;5066907;28;20176;-71
2023/04/10 01:49:11;;;;;;;1999.90;999.90;;;;;;;1.84;100.00;95295.03;5066781;28;20173;-71
2023/04/10 01:51:37;;;;;;;1999.90;999.90;;;;;;;1.85;100.00;95285.81;5066757;28;20245;-72
2023/04/10 01:54:04;;;;;;;1999.90;999.90;;;;;;;1.79;100.00;95273.75;5066548;28;20193;-71
2023/04/10 01:56:31;;;;;;;1999.90;999.90;;;;;;;1.78;100.00;95250.66;5066564;28;20196;-72
2023/04/10 01:58:57;;;;;;;1999.90;999.90;;;;;;;1.77;100.00;95235.66;5066597;28;20167;-72
2023/04/10 02:01:22;;;;;;;1999.90;999.90;;;;;;;1.75;100.00;95254.06;5067101;28;20188;-71
2023/04/10 02:03:48;;;;;;;1999.90;999.90;;;;;;;1.76;100.00;95255.63;5066962;28;20169;-71
2023/04/10 02:06:55;;;;;;;1999.90;999.90;;;;;;;1.77;100.00;95241.03;5067029;28;20173;-71
2023/04/10 02:09:40;;;;;;;1999.90;999.90;;;;;;;1.75;100.00;95237.91;5052650;28;20224;-71
2023/04/10 02:12:13;;;;;;;1999.90;999.90;;;;;;;1.73;100.00;95218.66;5066783;28;20211;-72
2023/04/10 02:14:45;;;;;;;1999.90;999.90;;;;;;;1.71;100.00;95214.75;5066809;28;20193;-70
2023/04/10 02:17:14;;;;;;;1999.90;999.90;;;;;;;1.73;100.00;95207.91;5066814;28;20160;-71
2023/04/10 02:19:42;;;;;;;1999.90;999.90;;;;;;;1.74;100.00;95197.88;5066148;28;20170;-71
2023/04/10 02:22:07;;;;;;;1999.90;999.90;;;;;;;1.71;100.00;95199.38;5066663;28;20191;-71
2023/04/10 02:24:34;;;;;;;1999.90;999.90;;;;;;;1.72;100.00;95184.03;5066181;28;20180;-71
2023/04/10 02:27:00;;;;;;;1999.90;999.90;;;;;;;1.75;100.00;95173.31;5066401;28;20211;-71
2023/04/10 02:29:25;;;;;;;1999.90;999.90;;;;;;;1.71;100.00;95177.84;5066005;28;20174;-70
2023/04/10 02:31:51;;;;;;;1999.90;999.90;;;;;;;1.66;100.00;95175.44;5066154;28;20225;-70
2023/04/10 02:34:16;;;;;;;1999.90;999.90;;;;;;;1.70;100.00;95179.00;5066319;28;20166;-71
2023/04/10 02:36:41;;;;;;;1999.90;999.90;;;;;;;1.64;100.00;95172.31;5066148;28;20177;-72
2023/04/10 02:39:07;;;;;;;1999.90;999.90;;;;;;;1.59;100.00;95175.28;5065912;28;20185;-74
2023/04/10 02:41:33;;;;;;;1999.90;999.90;;;;;;;1.56;100.00;95176.00;5066659;28;20180;-71
2023/04/10 02:43:58;;;;;;;1999.90;999.90;;;;;;;1.55;100.00;95174.44;5065822;28;20240;-71
2023/04/10 02:46:23;;;;;;;1999.90;999.90;;;;;;;1.49;100.00;95167.75;5066179;28;20173;-71
2023/04/10 02:48:51;;;;;;;1999.90;999.90;;;;;;;1.49;100.00;95167.75;5065542;28;20226;-71
2023/04/10 02:51:16;;;;;;;1999.90;999.90;;;;;;;1.48;100.00;95163.53;5066136;28;20173;-71
2023/04/10 02:53:42;;;;;;;1999.90;999.90;;;;;;;1.48;100.00;95163.53;5065539;28;20200;-71
2023/04/10 02:56:08;;;;;;;1999.90;999.90;;;;;;;1.41;100.00;95157.97;5065911;28;20206;-73
2023/04/10 02:58:34;;;;;;;1999.90;999.90;;;;;;;1.38;100.00;95157.91;5065606;28;20174;-71
2023/04/10 03:01:00;;;;;;;1999.90;999.90;;;;;;;1.36;100.00;95158.25;5065503;28;20166;-71
2023/04/10 03:03:25;;;;;;;1999.90;999.90;;;;;;;1.36;100.00;95149.41;5065311;28;20192;-71
2023/04/10 03:05:52;;;;;;;1999.90;999.90;;;;;;;1.27;100.00;95141.53;5065610;28;20240;-72
2023/04/10 03:08:17;;;;;;;1999.90;999.90;;;;;;;1.24;100.00;95147.59;5066085;28;20175;-73
2023/04/10 03:10:44;;;;;;;1999.90;999.90;;;;;;;1.22;100.00;95132.94;5065239;28;20235;-73
2023/04/10 03:13:09;;;;;;;1999.90;999.90;;;;;;;1.15;100.00;95127.41;5065177;28;20170;-72
2023/04/10 03:15:35;;;;;;;1999.90;999.90;;;;;;;1.16;100.00;95123.63;5065116;28;20209;-73
2023/04/10 03:18:01;;;;;;;1999.90;999.90;;;;;;;1.13;100.00;95114.31;5065719;28;20177;-72
2023/04/10 03:20:26;;;;;;;1999.90;999.90;;;;;;;1.12;100.00;95112.75;5065050;28;20241;-73
2023/04/10 03:22:51;;;;;;;1999.90;999.90;;;;;;;1.07;100.00;95110.34;5065092;28;20172;-73
2023/04/10 03:25:17;;;;;;;1999.90;999.90;;;;;;;1.08;100.00;95103.06;5065093;28;20199;-74
2023/04/10 03:27:42;;;;;;;1999.90;999.90;;;;;;;1.08;100.00;95085.03;5065604;28;20174;-73
2023/04/10 03:30:08;;;;;;;1999.90;999.90;;;;;;;1.01;100.00;95103.69;5065045;28;20242;-76
2023/04/10 03:32:33;;;;;;;1999.90;999.90;;;;;;;1.04;100.00;95086.06;5065704;28;20166;-75
2023/04/10 03:34:59;;;;;;;1999.90;999.90;;;;;;;1.03;100.00;95081.81;5065467;28;20208;-73
2023/04/10 03:37:26;;;;;;;1999.90;999.90;;;;;;;0.99;100.00;95070.22;5064781;28;20168;-72
2023/04/10 03:39:51;;;;;;;1999.90;999.90;;;;;;;1.00;100.00;95061.81;5065311;28;20169;-73
2023/04/10 03:42:17;;;;;;;1999.90;999.90;;;;;;;1.02;100.00;95059.53;5064730;28;20192;-72
2023/04/10 03:44:42;;;;;;;1999.90;999.90;;;;;;;0.99;100.00;95071.00;5064614;28;20251;-73
2023/04/10 03:47:07;;;;;;;1999.90;999.90;;;;;;;1.03;100.00;95066.50;5065227;28;20215;-72
2023/04/10 03:49:33;;;;;;;1999.90;999.90;;;;;;;1.02;100.00;95070.28;5065022;28;20201;-72
2023/04/10 03:51:58;;;;;;;1999.90;999.90;;;;;;;0.97;100.00;95067.88;5064818;28;20169;-71
2023/04/10 03:54:23;;;;;;;1999.90;999.90;;;;;;;0.99;100.00;95059.47;5064628;28;20201;-72
2023/04/10 03:56:49;;;;;;;1999.90;999.90;;;;;;;1.02;100.00;95058.78;5064382;28;20223;-71
2023/04/10 03:59:14;;;;;;;1999.90;999.90;;;;;;;0.99;100.00;95060.25;5063742;28;20174;-71
2023/04/10 04:01:40;;;;;;;1999.90;999.90;;;;;;;0.96;100.00;95060.97;5064960;28;20173;-73
2023/04/10 04:04:05;;;;;;;1999.90;999.90;;;;;;;0.98;100.00;95060.59;5064333;28;20173;-72
2023/04/10 04:06:31;;;;;;;1999.90;999.90;;;;;;;0.94;100.00;95063.19;5065036;28;20240;-72
2023/04/10 04:08:56;;;;;;;1999.90;999.90;;;;;;;0.93;100.00;95058.97;5064989;28;20193;-71
2023/04/10 04:11:22;;;;;;;1999.90;999.90;;;;;;;0.94;100.00;95052.44;5064673;28;20175;-72
2023/04/10 04:13:47;;;;;;;1999.90;999.90;;;;;;;0.92;100.00;95045.88;5064228;28;20166;-72
2023/04/10 04:16:13;;;;;;;1999.90;999.90;;;;;;;0.88;100.00;95048.50;5063990;28;20207;-72
2023/04/10 04:18:38;;;;;;;1999.90;999.90;;;;;;;0.89;100.00;95033.91;5064128;28;20191;-71
2023/04/10 04:21:04;;;;;;;1999.90;999.90;;;;;;;0.88;100.00;95037.75;5064317;28;20164;-71
2023/04/10 04:23:29;;;;;;;1999.90;999.90;;;;;;;0.90;100.00;95030.09;5064741;28;20173;-71
2023/04/10 04:25:56;;;;;;;1999.90;999.90;;;;;;;0.93;100.00;95024.03;5064031;28;20192;-72
2023/04/10 04:28:22;;;;;;;1999.90;999.90;;;;;;;0.98;100.00;95021.06;5064003;28;20173;-71
2023/04/10 04:30:47;;;;;;;1999.90;999.90;;;;;;;0.96;100.00;95007.22;5063729;28;20225;-71
2023/04/10 04:33:12;;;;;;;1999.90;999.90;;;;;;;0.96;100.00;95006.41;5064542;28;20192;-71
2023/04/10 04:35:38;;;;;;;1999.90;999.90;;;;;;;0.95;100.00;95008.31;5063741;28;20200;-72
2023/04/10 04:38:03;;;;;;;1999.90;999.90;;;;;;;0.92;100.00;95003.66;5064284;28;20170;-72
2023/04/10 04:40:29;;;;;;;1999.90;999.90;;;;;;;0.94;100.00;95004.09;5064337;28;20169;-72
2023/04/10 04:42:54;;;;;;;1999.90;999.90;;;;;;;1.03;100.00;95002.00;5063876;28;20171;-71
2023/04/10 04:45:20;;;;;;;1999.90;999.90;;;;;;;1.18;100.00;95000.34;5063690;28;20213;-73
2023/04/10 04:47:46;;;;;;;1999.90;999.90;;;;;;;1.30;100.00;94990.25;5064081;28;20412;-72
2023/04/10 04:50:11;;;;;;;1999.90;999.90;;;;;;;1.61;100.00;94987.41;5063625;28;20170;-72
2023/04/10 04:52:36;;;;;;;1999.90;999.90;;;;;;;1.74;100.00;94983.41;5064135;28;20242;-72
2023/04/10 04:55:02;;;;;;;1999.90;999.90;;;;;;;2.07;100.00;94989.00;5063493;28;20208;-72
2023/04/10 04:57:27;;;;;;;1999.90;999.90;;;;;;;2.38;100.00;94996.84;5063457;28;20165;-73
2023/04/10 04:59:53;;;;;;;1999.90;999.90;;;;;;;2.69;100.00;95015.41;5064070;28;20169;-73
2023/04/10 05:02:21;;;;;;;1999.90;999.90;;;;;;;2.95;100.00;95050.44;5063522;28;20177;-73
2023/04/10 05:04:46;;;;;;;1999.90;999.90;;;;;;;3.36;100.00;95073.00;5063553;28;20178;-71
2023/04/10 05:07:12;;;;;;;1999.90;999.90;;;;;;;3.53;100.00;95140.72;5063835;28;20177;-73
2023/04/10 05:09:37;;;;;;;1999.90;999.90;;;;;;;3.81;100.00;95242.13;5063549;28;20181;-73
2023/04/10 05:12:02;;;;;;;1999.90;999.90;;;;;;;4.29;100.00;95335.88;5066165;28;20166;-73
2023/04/10 05:14:28;;;;;;;1999.90;999.90;;;;;;;4.45;100.00;95442.69;5067990;28;20166;-73
2023/04/10 05:16:53;;;;;;;1999.90;999.90;;;;;;;4.89;100.00;95526.81;5067531;28;20167;-74
2023/04/10 05:19:19;;;;;;;1999.90;999.90;;;;;;;5.16;100.00;95615.75;5067459;28;20174;-74
2023/04/10 05:21:44;;;;;;;1999.90;999.90;;;;;;;5.19;100.00;95690.81;5067370;28;20169;-73
2023/04/10 05:24:10;;;;;;;1999.90;999.90;;;;;;;5.58;100.00;95737.50;5067879;28;20196;-75
2023/04/10 05:26:35;;;;;;;1999.90;999.90;;;;;;;6.16;100.00;95771.34;5067220;28;20251;-74
2023/04/10 05:29:00;;;;;;;1999.90;999.90;;;;;;;6.36;100.00;95821.59;5067222;28;20176;-74
2023/04/10 05:31:26;;;;;;;1999.90;999.90;;;;;;;6.71;100.00;95843.81;5066727;28;20224;-75
2023/04/10 05:33:51;;;;;;;1999.90;999.90;;;;;;;6.84;100.00;95864.13;5067472;28;20169;-73
2023/04/10 05:36:17;;;;;;;1999.90;999.90;;;;;;;7.29;100.00;95874.81;5067006;28;20221;-73
2023/04/10 05:38:42;;;;;;;1999.90;999.90;;;;;;;7.02;100.00;95891.53;5067127;28;20196;-72
2023/04/10 05:41:08;;;;;;;1999.90;999.90;;;;;;;7.43;100.00;95901.38;5067138;28;20301;-72
2023/04/10 05:43:33;;;;;;;1999.90;999.90;;;;;;;7.77;100.00;95911.06;5067257;28;20228;-72
2023/04/10 05:45:58;;;;;;;1999.90;999.90;;;;;;;7.99;100.00;95924.53;5067435;28;20192;-71
2023/04/10 05:48:25;;;;;;;1999.90;999.90;;;;;;;8.34;100.00;95924.88;5066853;28;20179;-73
2023/04/10 05:50:51;;;;;;;1999.90;999.90;;;;;;;8.74;100.00;95922.09;5067333;28;20246;-73
2023/04/10 05:53:18;;;;;;;1999.90;999.90;;;;;;;9.08;100.00;95933.59;5067298;28;20171;-73
2023/04/10 05:55:43;;;;;;;1999.90;999.90;;;;;;;9.44;100.00;95927.97;5066679;28;20286;-71
2023/04/10 05:58:09;;;;;;;1999.90;999.90;;;;;;;9.95;100.00;95939.44;5067288;28;20176;-71
2023/04/10 06:00:35;;;;;;;1999.90;999.90;;;;;;;10.17;100.00;95945.00;5067178;28;20182;-71
2023/04/10 06:03:02;;;;;;;1999.90;999.90;;;;;;;10.07;100.00;95947.34;5067321;28;20202;-71
2023/04/10 06:05:27;;;;;;;1999.90;999.90;;;;;;;10.29;100.00;95947.34;5067048;28;20186;-72
2023/04/10 06:07:53;;;;;;;1999.90;999.90;;;;;;;10.57;100.00;95950.13;5066554;28;20208;-71
2023/04/10 06:10:18;;;;;;;1999.90;999.90;;;;;;;11.09;100.00;95949.34;5066513;28;20174;-71
2023/04/10 06:12:44;;;;;;;1999.90;999.90;;;;;;;11.30;100.00;95952.06;5066487;28;20178;-70
2023/04/10 06:15:09;;;;;;;1999.90;999.90;;;;;;;11.33;100.00;95959.47;5066341;28;20228;-70
2023/04/10 06:17:41;;;;;;;1999.90;999.90;;;;;;;11.01;100.00;95954.06;5066377;28;20181;-70
2023/04/10 06:20:07;;;;;;;1999.90;999.90;;;;;;;11.59;100.00;95956.28;5066346;28;20208;-68
2023/04/10 06:22:32;;;;;;;1999.90;999.90;;;;;;;11.89;100.00;95959.31;5065221;28;20178;-71
2023/04/10 06:24:58;;;;;;;1999.90;999.90;;;;;;;12.23;100.00;95958.38;5066689;28;20182;-71
2023/04/10 06:27:23;;;;;;;1999.90;999.90;;;;;;;12.47;100.00;95956.66;5066670;28;20201;-72
2023/04/10 06:29:49;;;;;;;1999.90;999.90;;;;;;;12.54;100.00;95956.63;5065966;28;20182;-72
2023/04/10 06:32:14;;;;;;;1999.90;999.90;;;;;;;12.95;100.00;95954.75;5066833;28;20251;-71
2023/04/10 06:34:40;;;;;;;1999.90;999.90;;;;;;;13.58;100.00;95943.19;5066477;28;20174;-71
2023/04/10 06:37:05;;;;;;;1999.90;999.90;;;;;;;14.56;100.00;95941.16;5066533;28;20211;-70
2023/04/10 06:39:30;;;;;;;1999.90;999.90;;;;;;;13.03;100.00;95950.78;5066338;28;20227;-70
2023/04/10 06:41:56;;;;;;;1999.90;999.90;;;;;;;12.99;100.00;95944.56;5066445;28;20177;-70
2023/04/10 06:44:22;;;;;;;1999.90;999.90;;;;;;;14.33;100.00;95939.16;5066362;28;20170;-70
2023/04/10 06:46:47;;;;;;;1999.90;999.90;;;;;;;13.64;100.00;95946.25;5065839;28;20188;-69
2023/04/10 06:49:12;;;;;;;1999.90;999.90;;;;;;;14.10;100.00;95935.50;5065784;28;20185;-71
2023/04/10 06:51:38;;;;;;;1999.90;999.90;;;;;;;13.50;100.00;95940.91;5065823;28;20182;-71
2023/04/10 06:54:03;;;;;;;1999.90;999.90;;;;;;;12.61;100.00;95945.63;5065679;28;20201;-71
2023/04/10 06:56:29;;;;;;;1999.90;999.90;;;;;;;12.88;100.00;95936.41;5065549;28;20255;-71
2023/04/10 06:58:55;;;;;;;1999.90;999.90;;;;;;;12.70;100.00;95943.19;5065599;28;20174;-68
2023/04/10 07:01:20;;;;;;;1999.90;999.90;;;;;;;13.16;100.00;95940.88;5066045;28;20174;-69
2023/04/10 07:03:45;;;;;;;1999.90;999.90;;;;;;;14.15;100.00;95924.84;5065508;28;20213;-69
2023/04/10 07:06:11;;;;;;;1999.90;999.90;;;;;;;14.82;100.00;95919.16;5065560;28;20181;-70
2023/04/10 07:08:37;;;;;;;1999.90;999.90;;;;;;;14.89;100.00;95930.06;5065821;28;20174;-70
2023/04/10 07:11:02;;;;;;;1999.90;999.90;;;;;;;14.57;100.00;95927.00;5066057;28;20174;-70
2023/04/10 07:13:28;;;;;;;1999.90;999.90;;;;;;;15.22;100.00;95923.59;5065405;28;20249;-69
2023/04/10 07:15:53;;;;;;;1999.90;999.90;;;;;;;16.38;91.22;95930.38;5065790;28;20232;-69
2023/04/10 07:18:18;;;;;;;1999.90;999.90;;;;;;;15.19;90.65;95929.94;5065206;28;20174;-70
2023/04/10 07:20:44;;;;;;;1999.90;999.90;;;;;;;15.36;91.23;95923.38;5065206;28;20178;-69
2023/04/10 07:23:10;;;;;;;1999.90;999.90;;;;;;;15.79;86.97;95935.16;5065318;28;20205;-67
2023/04/10 07:25:35;;;;;;;1999.90;999.90;;;;;;;16.71;85.61;95933.22;5064744;28;20178;-68
2023/04/10 07:28:00;;;;;;;1999.90;999.90;;;;;;;15.04;85.92;95934.13;5065538;28;20181;-66
2023/04/10 07:30:25;;;;;;;1999.90;999.90;;;;;;;15.96;84.13;95927.72;5065162;28;20214;-67
2023/04/10 07:32:51;;;;;;;1999.90;999.90;;;;;;;16.43;80.34;95924.38;5065020;28;20178;-68
2023/04/10 07:35:16;;;;;;;1999.90;999.90;;;;;;;17.64;70.42;95926.53;5065425;28;20197;-68
2023/04/10 07:37:43;;;;;;;1999.90;999.90;;;;;;;17.58;71.38;95927.47;5064898;28;20185;-66
2023/04/10 07:40:10;;;;;;;1999.90;999.90;;;;;;;17.61;69.37;95932.94;5064843;28;20240;-66
2023/04/10 07:42:35;;;;;;;1999.90;999.90;;;;;;;16.65;72.51;95929.41;5065590;28;20174;-67
2023/04/10 07:45:01;;;;;;;1999.90;999.90;;;;;;;15.27;79.62;95934.09;5064596;28;20222;-67
2023/04/10 07:47:27;;;;;;;1999.90;999.90;;;;;;;15.47;79.83;95928.69;5065188;28;20182;-68
2023/04/10 07:49:52;;;;;;;1999.90;999.90;;;;;;;16.21;77.49;95934.28;5065266;28;20206;-68
2023/04/10 07:52:17;;;;;;;1999.90;999.90;;;;;;;15.45;75.50;95936.59;5064581;28;20207;-68
2023/04/10 07:54:43;;;;;;;1999.90;999.90;;;;;;;15.49;76.96;95943.59;5064821;28;20194;-68
2023/04/10 07:57:08;;;;;;;1999.90;999.90;;;;;;;15.53;75.39;95938.81;5064969;28;20177;-67
2023/04/10 07:59:34;;;;;;;1999.90;999.90;;;;;;;14.92;78.88;95931.97;5064474;28;20181;-66
2023/04/10 08:02:00;;;;;;;1999.90;999.90;;;;;;;16.36;75.00;95932.00;5064803;28;20182;-69
2023/04/10 08:04:25;;;;;;;1999.90;999.90;;;;;;;17.29;66.74;95930.19;5064295;28;20177;-67
2023/04/10 08:06:54;;;;;;;1999.90;999.90;;;;;;;16.54;66.04;95950.94;5064852;28;20223;-68
2023/04/10 08:09:20;;;;;;;1999.90;999.90;;;;;;;16.01;68.04;95943.75;5064232;28;20186;-68
2023/04/10 08:11:45;;;;;;;1999.90;999.90;;;;;;;15.61;72.18;95934.72;5064518;28;20181;-68
2023/04/10 08:14:12;;;;;;;1999.90;999.90;;;;;;;16.55;66.95;95930.41;5064286;28;20211;-68
2023/04/10 08:16:38;;;;;;;1999.90;999.90;;;;;;;17.68;64.33;95929.19;5064436;28;20201;-68
2023/04/10 08:19:03;;;;;;;1999.90;999.90;;;;;;;17.62;62.18;95930.94;5064145;28;20276;-68
2023/04/10 08:21:33;;;;;;;1999.90;999.90;;;;;;;16.55;63.82;95930.41;5063987;28;20181;-68
2023/04/10 08:24:01;;;;;;;1999.90;999.90;;;;;;;16.55;68.15;95930.41;5063858;28;20178;-68
2023/04/10 08:26:27;;;;;;;1999.90;999.90;;;;;;;17.67;62.06;95933.94;5064038;28;20517;-68
2023/04/10 08:28:54;;;;;;;1999.90;999.90;;;;;;;16.77;64.17;95929.50;5063675;28;20178;-67
2023/04/10 08:31:21;;;;;;;1999.90;999.90;;;;;;;15.62;69.73;95936.25;5063671;28;20271;-67
2023/04/10 08:33:47;;;;;;;1999.90;999.90;;;;;;;16.09;71.83;95932.16;5063946;28;20205;-68
2023/04/10 08:36:16;;;;;;;1999.90;999.90;;;;;;;15.20;75.46;95930.72;5064223;28;20194;-68
2023/04/10 08:38:45;;;;;;;1999.90;999.90;;;;;;;16.03;72.73;95922.84;5064312;28;20228;-67
2023/04/10 08:41:16;;;;;;;1999.90;999.90;;;;;;;16.62;67.63;95920.00;5063802;28;20181;-68
2023/04/10 08:43:42;;;;;;;1999.90;999.90;;;;;;;15.09;70.29;95925.41;5064080;28;20200;-67
2023/04/10 08:46:08;;;;;;;1999.90;999.90;;;;;;;15.70;67.03;95926.66;5063093;28;20174;-66
2023/04/10 08:49:03;;;;;;;1999.90;999.90;;;;;;;14.87;72.26;95940.69;5063846;28;20170;-68
2023/04/10 08:51:41;;;;;;;1999.90;999.90;;;;;;;15.96;65.11;95934.00;5058828;28;20257;-67
2023/04/10 08:54:13;;;;;;;1999.90;999.90;;;;;;;16.66;65.34;95920.72;5064183;28;20197;-68
2023/04/10 08:56:41;;;;;;;1999.90;999.90;;;;;;;16.44;65.05;95928.66;5064093;28;20193;-68
2023/04/10 08:59:08;;;;;;;1999.90;999.90;;;;;;;17.52;62.19;95929.25;5063662;28;20177;-68
2023/04/10 09:01:34;;;;;;;1999.90;999.90;;;;;;;17.46;61.53;95930.97;5064023;28;20170;-66
2023/04/10 09:04:00;;;;;;;1999.90;999.90;;;;;;;17.41;56.65;95937.00;5064159;28;20177;-69
2023/04/10 09:06:26;;;;;;;1999.90;999.90;;;;;;;16.82;59.67;95928.22;5063313;28;20173;-68
2023/04/10 09:08:54;;;;;;;1999.90;999.90;;;;;;;17.31;61.36;95927.00;5064096;28;20177;-68
2023/04/10 09:11:22;;;;;;;1999.90;999.90;;;;;;;17.52;58.53;95929.25;5063414;28;20174;-69
2023/04/10 09:13:48;;;;;;;1999.90;999.90;;;;;;;18.08;57.80;95933.22;5064048;28;20174;-68
2023/04/10 09:16:14;;;;;;;1999.90;999.90;;;;;;;18.56;55.56;95913.63;5063266;28;20197;-67
2023/04/10 09:18:44;;;;;;;1999.90;999.90;;;;;;;18.46;55.30;95915.50;5064223;28;20181;-69
2023/04/10 09:21:12;;;;;;;1999.90;999.90;;;;;;;17.11;58.50;95923.56;5064282;28;20170;-70
2023/04/10 09:23:38;;;;;;;1999.90;999.90;;;;;;;17.92;56.41;95913.94;5063345;28;20181;-68
2023/04/10 09:26:28;;;;;;;1999.90;999.90;;;;;;;18.85;53.53;95914.28;5063743;28;20178;-68
2023/04/10 09:29:02;;;;;;;1999.90;999.90;;;;;;;16.93;60.86;95906.69;5064136;28;20169;-68
2023/04/10 09:31:38;;;;;;;1999.90;999.90;;;;;;;18.39;53.47;95904.66;5062947;28;20247;-69
2023/04/10 09:34:13;;;;;;;1999.90;999.90;;;;;;;18.25;51.38;95902.28;5064143;28;20180;-66
2023/04/10 09:36:44;;;;;;;1999.90;999.90;;;;;;;18.19;51.94;95895.75;5063663;28;20268;-68
2023/04/10 09:39:14;;;;;;;1999.90;999.90;;;;;;;18.25;50.95;95890.44;5063375;28;20190;-68
2023/04/10 09:41:51;;;;;;;1999.90;999.90;;;;;;;17.90;52.40;95891.47;5063666;28;20223;-67
2023/04/10 09:44:26;;;;;;;1999.90;999.90;;;;;;;18.66;49.64;95888.41;5063942;28;20169;-66
2023/04/10 09:46:52;;;;;;;1999.90;999.90;;;;;;;18.88;48.32;95871.88;5063437;28;20170;-66
2023/04/10 09:49:17;;;;;;;1999.90;999.90;;;;;;;17.73;49.55;95876.16;5063130;28;20177;-67
2023/04/10 09:51:43;;;;;;;1999.90;999.90;;;;;;;17.02;51.67;95887.50;5063544;28;20174;-66
2023/04/10 09:54:09;;;;;;;1999.90;999.90;;;;;;;17.57;51.08;95876.22;5063486;28;20210;-67
2023/04/10 09:56:37;;;;;;;1999.90;999.90;;;;;;;17.99;48.63;95869.50;5063425;28;20280;-67
2023/04/10 09:59:05;;;;;;;1999.90;999.90;;;;;;;17.40;49.31;95871.91;5066448;28;20190;-67
2023/04/10 10:01:33;;;;;;;1999.90;999.90;;;;;;;18.70;49.74;95866.94;5066962;28;20233;-67
2023/04/10 10:04:03;;;;;;;1999.90;999.90;;;;;;;18.09;48.07;95865.63;5066423;28;20194;-67
2023/04/10 10:06:32;;;;;;;1999.90;999.90;;;;;;;18.46;47.87;95856.63;5066276;28;20228;-67
2023/04/10 10:09:03;;;;;;;1999.90;999.90;;;;;;;18.96;45.99;95857.38;5066561;28;20176;-69
2023/04/10 10:11:33;;;;;;;1999.90;999.90;;;;;;;17.99;47.03;95850.16;5066983;28;20192;-68
2023/04/10 10:13:59;;;;;;;1999.90;999.90;;;;;;;18.25;45.66;95851.75;5066335;28;20178;-67
2023/04/10 10:16:38;;;;;;;1999.90;999.90;;;;;;;18.05;45.61;95853.91;5066195;28;20208;-66
2023/04/10 10:19:41;;;;;;;1999.90;999.90;;;;;;;17.26;49.75;95844.72;5066938;28;20207;-66
2023/04/10 10:22:08;;;;;;;1999.90;999.90;;;;;;;18.17;47.09;95839.34;5066838;28;20235;-66
2023/04/10 10:24:37;;;;;;;1999.90;999.90;;;;;;;18.61;45.35;95841.16;5066156;28;20165;-67
2023/04/10 10:27:08;;;;;;;1999.90;999.90;;;;;;;18.35;45.44;95839.59;5066313;28;20178;-66
2023/04/10 10:29:35;;;;;;;1999.90;999.90;;;;;;;17.78;47.17;95840.47;5066579;28;20184;-67
2023/04/10 10:32:02;;;;;;;1999.90;999.90;;;;;;;18.26;44.14;95834.72;5065604;28;20218;-67
2023/04/10 10:34:28;;;;;;;1999.90;999.90;;;;;;;18.34;43.43;95826.94;5066411;28;20188;-67
2023/04/10 10:36:53;;;;;;;1999.90;999.90;;;;;;;17.42;46.50;95828.13;5065804;28;20209;-67
2023/04/10 10:39:33;;;;;;;1999.90;999.90;;;;;;;16.66;49.86;95832.44;5066458;28;20181;-69
2023/04/10 10:42:13;;;;;;;1999.90;999.90;;;;;;;17.81;46.84;95811.22;5066408;28;20247;-68
2023/04/10 10:44:48;;;;;;;1999.90;999.90;;;;;;;17.78;44.75;95806.56;5065829;28;20515;-67
2023/04/10 10:47:14;;;;;;;1999.90;999.90;;;;;;;17.83;47.66;95806.00;5066414;28;20223;-67
2023/04/10 10:49:54;;;;;;;1999.90;999.90;;;;;;;18.02;44.06;95816.09;5065855;28;20178;-67
2023/04/10 10:52:43;;;;;;;1999.90;999.90;;;;;;;17.96;43.29;95812.34;5065677;28;20237;-68
2023/04/10 10:55:23;;;;;;;1999.90;999.90;;;;;;;18.97;43.08;95811.06;5065648;28;20243;-66